Hot Springs, North Carolina
Current Conditions -  °F | °C
As of 9:54 PM on Saturday 24 Jan 2015 (Local Time) from KAVL Reporting Station
Clear Clear  
Wind Chill: 23°   Ceiling: Unl
Heat Index: 31°   Visibility: 10mi
Dew Point: 23°   Wind: 8mph
Humidity: 72%   Direction: 330°NNW
Pressure: 29.82"   Gusts: NA
Location:  35.89°N, 82.83°W
Report Text: KAVL 250254Z 33007KT 10SM CLR M01/M05 A2982 RMK AO2 SLP105 T10061050 51005
Loading
Personal Weather Stations






























Interactive Weather Map New forecast layout! Learn more

10-Day Weather Forecast

Advertisements
Track Severe Weather on mobile